createdAt,value
2018-10-12T00:01:59.406Z,17.83
2018-10-12T00:04:27.473Z,19.37
2018-10-12T00:06:55.550Z,17.10
2018-10-12T00:09:23.626Z,18.73
2018-10-12T00:11:51.698Z,16.60
2018-10-12T00:14:19.775Z,17.00
2018-10-12T00:16:47.858Z,18.23
2018-10-12T00:19:15.937Z,16.83
2018-10-12T00:21:44.005Z,17.93
2018-10-12T00:24:12.092Z,18.27
2018-10-12T00:26:40.157Z,16.47
2018-10-12T00:29:08.239Z,15.17
2018-10-12T00:31:36.307Z,17.17
2018-10-12T00:34:04.458Z,16.87
2018-10-12T00:36:32.526Z,15.40
2018-10-12T00:39:00.594Z,18.53
2018-10-12T00:41:28.665Z,15.70
2018-10-12T00:43:56.738Z,15.83
2018-10-12T00:46:24.810Z,14.67
2018-10-12T00:48:52.886Z,15.70
2018-10-12T00:51:20.959Z,15.30
2018-10-12T00:53:49.034Z,13.97
2018-10-12T00:56:17.109Z,14.47
2018-10-12T00:58:45.190Z,19.67
2018-10-12T01:01:13.279Z,15.20
2018-10-12T01:03:41.351Z,13.80
2018-10-12T01:06:09.462Z,14.10
2018-10-12T01:08:37.514Z,18.90
2018-10-12T01:11:05.591Z,16.07
2018-10-12T01:13:33.659Z,13.90
2018-10-12T01:16:01.730Z,18.30
2018-10-12T01:18:29.794Z,15.40
2018-10-12T01:20:57.874Z,15.10
2018-10-12T01:23:25.950Z,14.73
2018-10-12T01:25:54.038Z,16.23
2018-10-12T01:28:22.122Z,13.00
2018-10-12T01:30:50.212Z,12.80
2018-10-12T01:33:18.287Z,13.67
2018-10-12T01:35:46.372Z,14.87
2018-10-12T01:38:14.438Z,10.97
2018-10-12T01:40:42.511Z,13.37
2018-10-12T01:43:10.591Z,12.50
2018-10-12T01:45:38.670Z,12.20
2018-10-12T01:48:06.755Z,11.73
2018-10-12T01:50:34.833Z,12.57
2018-10-12T01:53:02.907Z,14.03
2018-10-12T01:55:30.979Z,13.03
2018-10-12T01:57:59.058Z,11.80
2018-10-12T02:00:27.130Z,14.20
2018-10-12T02:02:55.215Z,13.30
2018-10-12T02:05:23.287Z,13.87
2018-10-12T02:07:51.359Z,12.77
2018-10-12T02:10:19.434Z,12.60
2018-10-12T02:12:47.502Z,14.87
2018-10-12T02:15:15.606Z,14.30
2018-10-12T02:17:43.713Z,10.90
2018-10-12T02:20:12.308Z,15.10
2018-10-12T02:22:40.526Z,12.67
2018-10-12T02:25:09.058Z,11.50
2018-10-12T02:27:37.128Z,13.40
2018-10-12T02:30:05.867Z,12.40
2018-10-12T02:32:33.946Z,13.40
2018-10-12T02:35:02.036Z,13.37
2018-10-12T02:37:30.109Z,12.60
2018-10-12T02:39:58.194Z,14.60
2018-10-12T02:42:26.271Z,14.03
2018-10-12T02:44:54.342Z,12.27
2018-10-12T02:47:22.427Z,12.07
2018-10-12T02:49:50.526Z,13.07
2018-10-12T02:52:18.615Z,12.07
2018-10-12T02:54:46.678Z,15.80
2018-10-12T02:57:14.781Z,11.17
2018-10-12T02:59:42.858Z,12.70
2018-10-12T03:02:10.953Z,14.73
2018-10-12T03:04:39.026Z,12.50
2018-10-12T03:07:07.175Z,13.60
2018-10-12T03:09:35.252Z,11.97
2018-10-12T03:12:03.338Z,12.43
2018-10-12T03:14:31.420Z,13.27
2018-10-12T03:16:59.478Z,12.10
2018-10-12T03:19:27.550Z,13.17
2018-10-12T03:21:55.638Z,15.27
2018-10-12T03:24:23.750Z,12.70
2018-10-12T03:26:51.807Z,12.57
2018-10-12T03:29:19.888Z,12.23
2018-10-12T03:31:47.958Z,12.00
2018-10-12T03:34:16.074Z,14.30
2018-10-12T03:36:44.160Z,14.20
2018-10-12T03:39:12.262Z,11.73
2018-10-12T03:41:40.343Z,15.20
2018-10-12T03:44:08.439Z,11.60
2018-10-12T03:46:36.509Z,12.03
2018-10-12T03:49:04.613Z,11.53
2018-10-12T03:51:32.694Z,10.60
2018-10-12T03:54:00.978Z,10.80
2018-10-12T03:56:29.548Z,12.60
2018-10-12T03:58:57.617Z,11.27
2018-10-12T04:01:25.703Z,11.43
2018-10-12T04:03:53.795Z,12.37
2018-10-12T04:06:21.871Z,11.23
2018-10-12T04:08:49.940Z,13.90
2018-10-12T04:11:18.026Z,12.23
2018-10-12T04:13:46.094Z,12.60
2018-10-12T04:16:14.186Z,13.20
2018-10-12T04:18:42.270Z,12.90
2018-10-12T04:21:10.362Z,18.23
2018-10-12T04:23:38.455Z,15.13
2018-10-12T04:26:06.610Z,13.00
2018-10-12T04:28:34.691Z,11.93
2018-10-12T04:31:02.766Z,11.50
2018-10-12T04:33:30.874Z,12.73
2018-10-12T04:35:58.964Z,15.53
2018-10-12T04:38:28.574Z,15.20
2018-10-12T04:41:07.214Z,13.50
2018-10-12T04:43:35.311Z,12.20
2018-10-12T04:46:05.078Z,12.90
2018-10-12T04:48:33.987Z,12.10
2018-10-12T04:51:02.411Z,12.13
2018-10-12T04:53:30.698Z,12.27
2018-10-12T04:55:59.655Z,12.27
2018-10-12T04:58:28.511Z,12.00
2018-10-12T05:00:56.649Z,11.43
2018-10-12T05:03:25.175Z,12.20
2018-10-12T05:05:53.230Z,11.17
2018-10-12T05:08:21.359Z,12.67
2018-10-12T05:10:49.874Z,13.33
2018-10-12T05:13:18.759Z,12.33
2018-10-12T05:15:46.838Z,10.60
2018-10-12T05:18:15.039Z,11.70
2018-10-12T05:20:43.121Z,11.67
2018-10-12T05:23:11.347Z,13.90
2018-10-12T05:25:39.792Z,11.57
2018-10-12T05:28:08.126Z,11.53
2018-10-12T05:30:36.445Z,14.00
2018-10-12T05:33:04.627Z,13.67
2018-10-12T05:35:32.707Z,11.57
2018-10-12T05:38:00.827Z,12.77
2018-10-12T05:40:29.127Z,12.60
2018-10-12T05:42:57.331Z,11.90
2018-10-12T05:45:25.301Z,11.40
2018-10-12T05:47:53.378Z,13.10
2018-10-12T05:50:21.458Z,12.70
2018-10-12T05:52:49.542Z,11.77
2018-10-12T05:55:17.635Z,11.83
2018-10-12T05:57:45.714Z,13.33
2018-10-12T06:00:13.800Z,13.77
2018-10-12T06:02:41.891Z,12.57
2018-10-12T06:05:09.978Z,11.83
2018-10-12T06:07:38.051Z,12.43
2018-10-12T06:10:06.199Z,13.90
2018-10-12T06:12:34.222Z,14.03
2018-10-12T06:15:02.302Z,11.00
2018-10-12T06:17:30.392Z,10.20
2018-10-12T06:19:58.467Z,13.13
2018-10-12T06:22:26.590Z,10.83
2018-10-12T06:24:54.668Z,19.17
2018-10-12T06:27:23.179Z,13.23
2018-10-12T06:29:51.242Z,11.00
2018-10-12T06:32:19.350Z,13.03
2018-10-12T06:34:47.418Z,14.07
2018-10-12T06:37:15.500Z,12.87
2018-10-12T06:39:43.582Z,12.33
2018-10-12T06:42:11.651Z,11.10
2018-10-12T06:44:39.727Z,11.77
2018-10-12T06:47:07.819Z,11.13
2018-10-12T06:49:35.901Z,11.90
2018-10-12T06:52:04.178Z,12.83
2018-10-12T06:54:32.257Z,11.10
2018-10-12T06:57:00.354Z,11.80
2018-10-12T06:59:28.423Z,11.20
2018-10-12T07:01:56.723Z,8.97
2018-10-12T07:04:24.914Z,14.40
2018-10-12T07:06:52.982Z,9.63
2018-10-12T07:09:21.061Z,10.00
2018-10-12T07:11:49.138Z,10.70
2018-10-12T07:14:17.238Z,8.47
2018-10-12T07:16:45.318Z,8.80
2018-10-12T07:19:13.435Z,12.33
2018-10-12T07:21:41.501Z,7.87
2018-10-12T07:24:09.591Z,9.50
2018-10-12T07:26:37.696Z,9.00
2018-10-12T07:29:06.043Z,10.87
2018-10-12T07:31:34.200Z,10.20
2018-10-12T07:34:02.206Z,10.83
2018-10-12T07:36:30.288Z,10.80
2018-10-12T07:38:58.382Z,8.83
2018-10-12T07:41:26.449Z,8.87
2018-10-12T07:43:54.518Z,8.40
2018-10-12T07:46:22.592Z,10.53
2018-10-12T07:48:50.661Z,9.13
2018-10-12T07:51:18.717Z,9.60
2018-10-12T07:53:46.841Z,10.23
2018-10-12T07:56:14.915Z,9.00
2018-10-12T07:58:43.035Z,9.30
2018-10-12T08:01:11.131Z,10.10
2018-10-12T08:03:39.225Z,7.83
2018-10-12T08:06:07.340Z,9.93
2018-10-12T08:08:35.518Z,8.37
2018-10-12T08:11:03.588Z,7.20
2018-10-12T08:13:31.665Z,10.93
2018-10-12T08:15:59.727Z,15.57
2018-10-12T08:18:28.135Z,10.23
2018-10-12T08:20:56.202Z,8.30
2018-10-12T08:23:24.273Z,7.00
2018-10-12T08:25:52.342Z,10.00
2018-10-12T08:28:20.634Z,6.37
2018-10-12T08:30:48.698Z,9.57
2018-10-12T08:33:16.766Z,7.50
2018-10-12T08:35:44.981Z,6.87
2018-10-12T08:38:13.051Z,6.87
2018-10-12T08:40:41.119Z,6.00
2018-10-12T08:43:09.194Z,8.17
2018-10-12T08:45:37.291Z,5.57
2018-10-12T08:48:05.370Z,5.17
2018-10-12T08:50:33.433Z,7.70
2018-10-12T08:53:01.512Z,6.73
2018-10-12T08:55:29.633Z,6.30
2018-10-12T08:57:57.654Z,8.90
2018-10-12T09:00:25.728Z,5.77
2018-10-12T09:02:53.856Z,7.13
2018-10-12T09:05:21.870Z,7.00
2018-10-12T09:07:49.942Z,6.43
2018-10-12T09:10:18.023Z,7.40
2018-10-12T09:12:46.091Z,6.20
2018-10-12T09:15:14.171Z,5.60
2018-10-12T09:17:42.234Z,7.60
2018-10-12T09:20:10.363Z,4.90
2018-10-12T09:22:38.387Z,5.40
2018-10-12T09:25:06.475Z,5.33
2018-10-12T09:27:34.555Z,4.43
2018-10-12T09:30:02.610Z,6.33
2018-10-12T09:32:30.671Z,8.40
2018-10-12T09:34:58.755Z,5.90
2018-10-12T09:37:27.259Z,8.10
2018-10-12T09:39:55.538Z,4.10
2018-10-12T09:42:23.910Z,5.20
2018-10-12T09:44:52.518Z,7.37
2018-10-12T09:47:20.960Z,4.67
2018-10-12T09:49:49.005Z,6.73
2018-10-12T09:52:17.079Z,5.17
2018-10-12T09:54:45.411Z,4.80
2018-10-12T09:57:18.758Z,5.53
2018-10-12T09:59:46.847Z,6.40
2018-10-12T10:02:20.418Z,9.70
2018-10-12T10:04:48.470Z,4.70
2018-10-12T10:07:16.553Z,5.10
2018-10-12T10:09:44.638Z,5.63
2018-10-12T10:12:12.843Z,6.80
2018-10-12T10:14:40.933Z,5.90
2018-10-12T10:17:08.998Z,3.60
2018-10-12T10:19:37.086Z,3.30
2018-10-12T10:22:05.158Z,7.70
2018-10-12T10:24:33.231Z,4.40
2018-10-12T10:27:01.302Z,3.97
2018-10-12T10:29:29.372Z,5.03
2018-10-12T10:31:58.158Z,6.60
2018-10-12T10:34:26.217Z,4.97
2018-10-12T10:36:54.354Z,4.67
2018-10-12T10:39:22.418Z,7.03
2018-10-12T10:41:50.490Z,5.50
2018-10-12T10:44:18.678Z,8.60
2018-10-12T10:46:46.767Z,6.60
2018-10-12T10:49:14.839Z,5.30
2018-10-12T10:51:42.918Z,5.77
2018-10-12T10:54:11.002Z,4.67
2018-10-12T10:56:39.066Z,7.50
2018-10-12T10:59:08.106Z,5.60
2018-10-12T11:01:36.174Z,7.27
2018-10-12T11:04:04.254Z,4.10
2018-10-12T11:06:32.305Z,3.93
2018-10-12T11:09:00.415Z,3.27
2018-10-12T11:11:28.502Z,5.90
2018-10-12T11:13:56.592Z,4.70
2018-10-12T11:16:24.666Z,3.90
2018-10-12T11:18:52.774Z,4.10
2018-10-12T11:21:20.902Z,4.60
2018-10-12T11:23:49.018Z,4.90
2018-10-12T11:26:17.136Z,4.10
2018-10-12T11:28:45.343Z,4.40
2018-10-12T11:31:13.401Z,4.60
2018-10-12T11:33:41.471Z,3.80
2018-10-12T11:36:09.558Z,5.30
2018-10-12T11:38:37.625Z,5.23
2018-10-12T11:41:06.166Z,4.63
2018-10-12T11:43:35.830Z,3.07
2018-10-12T11:46:03.898Z,3.13
2018-10-12T11:48:32.035Z,3.83
2018-10-12T11:51:00.450Z,2.70
2018-10-12T11:53:29.112Z,3.10
2018-10-12T11:55:57.215Z,3.20
2018-10-12T11:58:25.622Z,3.50
2018-10-12T12:00:53.730Z,5.90
2018-10-12T12:03:22.043Z,6.83
2018-10-12T12:05:50.124Z,5.97
2018-10-12T12:08:18.185Z,5.57
2018-10-12T12:10:46.290Z,1.77
2018-10-12T12:13:14.356Z,2.80
2018-10-12T12:15:42.462Z,2.97
2018-10-12T12:18:10.565Z,3.43
2018-10-12T12:20:38.703Z,4.60
2018-10-12T12:23:06.770Z,4.40
2018-10-12T12:25:34.842Z,2.93
2018-10-12T12:28:02.917Z,4.43
2018-10-12T12:30:30.978Z,3.43
2018-10-12T12:32:59.050Z,7.17
2018-10-12T12:35:27.416Z,4.77
2018-10-12T12:37:55.198Z,3.93
2018-10-12T12:40:23.287Z,5.27
2018-10-12T12:42:51.363Z,3.53
2018-10-12T12:45:19.422Z,5.63
2018-10-12T12:47:47.604Z,3.23
2018-10-12T12:50:15.561Z,4.80
2018-10-12T12:52:43.642Z,3.03
2018-10-12T12:55:11.768Z,5.57
2018-10-12T12:57:39.838Z,5.13
2018-10-12T13:00:07.906Z,3.53
2018-10-12T13:02:35.977Z,5.10
2018-10-12T13:05:04.052Z,6.23
2018-10-12T13:07:32.439Z,6.63
2018-10-12T13:10:00.511Z,2.90
2018-10-12T13:12:28.670Z,4.47
2018-10-12T13:14:56.734Z,5.50
2018-10-12T13:17:24.963Z,4.10
2018-10-12T13:19:53.043Z,8.57
2018-10-12T13:22:21.146Z,4.23
2018-10-12T13:24:49.220Z,6.07
2018-10-12T13:27:17.270Z,7.20
2018-10-12T13:29:45.337Z,3.20
2018-10-12T13:32:13.402Z,5.40
2018-10-12T13:34:41.483Z,5.80
2018-10-12T13:37:09.555Z,8.43
2018-10-12T13:39:37.631Z,3.77
2018-10-12T13:42:05.710Z,4.33
2018-10-12T13:44:33.783Z,4.53
2018-10-12T13:47:01.878Z,7.37
2018-10-12T13:49:29.950Z,6.43
2018-10-12T13:51:58.034Z,4.20
2018-10-12T13:54:26.168Z,9.50
2018-10-12T13:56:59.394Z,6.43
2018-10-12T13:59:28.702Z,6.77
2018-10-12T14:01:56.799Z,7.80
2018-10-12T14:04:25.259Z,7.10
2018-10-12T14:06:53.367Z,5.40
2018-10-12T14:09:21.489Z,10.00
2018-10-12T14:11:49.569Z,3.73
2018-10-12T14:14:17.662Z,9.67
2018-10-12T14:16:45.970Z,6.40
2018-10-12T14:19:14.524Z,5.50
2018-10-12T14:21:42.368Z,6.87
2018-10-12T14:24:10.871Z,5.43
2018-10-12T14:26:38.974Z,6.30
2018-10-12T14:29:07.009Z,8.13
2018-10-12T14:31:35.144Z,3.90
2018-10-12T14:34:03.143Z,5.13
2018-10-12T14:36:31.222Z,4.13
2018-10-12T14:38:59.289Z,5.57
2018-10-12T14:41:27.422Z,4.00
2018-10-12T14:43:55.571Z,4.73
2018-10-12T14:46:23.566Z,7.47
2018-10-12T14:48:51.622Z,6.60
2018-10-12T14:51:19.747Z,4.93
2018-10-12T14:53:47.762Z,4.17
2018-10-12T14:56:15.833Z,5.03
2018-10-12T14:58:44.217Z,2.50
2018-10-12T15:01:12.249Z,5.60
2018-10-12T15:03:40.952Z,6.27
2018-10-12T15:06:09.010Z,5.30
2018-10-12T15:08:37.074Z,5.60
2018-10-12T15:11:05.274Z,4.90
2018-10-12T15:13:33.340Z,4.73
2018-10-12T15:16:01.413Z,5.37
2018-10-12T15:18:29.486Z,3.60
2018-10-12T15:20:57.588Z,3.60
2018-10-12T15:23:25.649Z,4.47
2018-10-12T15:25:54.630Z,3.57
2018-10-12T15:28:22.722Z,3.20
2018-10-12T15:30:50.810Z,3.90
2018-10-12T15:33:18.874Z,4.10
2018-10-12T15:35:46.939Z,4.00
2018-10-12T15:38:15.054Z,4.10
2018-10-12T15:40:43.127Z,3.60
2018-10-12T15:43:11.236Z,8.07
2018-10-12T15:45:39.289Z,3.60
2018-10-12T15:48:07.566Z,4.40
2018-10-12T15:50:35.642Z,3.33
2018-10-12T15:53:03.926Z,3.97
2018-10-12T15:55:32.006Z,5.10
2018-10-12T15:58:00.130Z,4.47
2018-10-12T16:00:28.183Z,3.87
2018-10-12T16:02:56.259Z,6.33
2018-10-12T16:05:24.318Z,4.67
2018-10-12T16:07:52.431Z,5.10
2018-10-12T16:10:20.498Z,4.47
2018-10-12T16:12:48.560Z,9.67
2018-10-12T16:15:16.626Z,7.43
2018-10-12T16:17:44.705Z,4.30
2018-10-12T16:20:12.775Z,4.33
2018-10-12T16:22:41.049Z,7.30
2018-10-12T16:25:20.651Z,4.00
2018-10-12T16:27:48.723Z,3.97
2018-10-12T16:30:16.815Z,6.60
2018-10-12T16:32:44.878Z,8.07
2018-10-12T16:35:12.946Z,4.83
2018-10-12T16:37:41.010Z,3.03
2018-10-12T16:40:09.062Z,6.60
2018-10-12T16:42:37.174Z,3.90
2018-10-12T16:45:05.234Z,8.33
2018-10-12T16:47:33.315Z,6.83
2018-10-12T16:50:01.385Z,6.30
2018-10-12T16:52:29.463Z,4.57
2018-10-12T16:54:57.538Z,6.37
2018-10-12T16:57:30.842Z,8.27
2018-10-12T16:59:58.967Z,5.07
2018-10-12T17:02:27.130Z,4.23
2018-10-12T17:04:55.259Z,4.30
2018-10-12T17:07:23.334Z,4.60
2018-10-12T17:09:51.394Z,5.27
2018-10-12T17:12:19.622Z,7.00
2018-10-12T17:14:47.794Z,6.10
2018-10-12T17:17:15.940Z,6.00
2018-10-12T17:19:44.018Z,5.63
2018-10-12T17:22:12.196Z,8.40
2018-10-12T17:24:40.239Z,8.33
2018-10-12T17:27:08.302Z,6.20
2018-10-12T17:29:36.505Z,6.30
2018-10-12T17:32:04.710Z,8.57
2018-10-12T17:34:33.143Z,7.07
2018-10-12T17:37:01.218Z,7.17
2018-10-12T17:39:29.282Z,4.90
2018-10-12T17:42:09.278Z,5.33
2018-10-12T17:44:37.346Z,5.87
2018-10-12T17:47:05.602Z,4.73
2018-10-12T17:49:33.676Z,4.20
2018-10-12T17:52:01.728Z,5.30
2018-10-12T17:54:29.920Z,4.40
2018-10-12T17:57:01.892Z,6.43
2018-10-12T17:59:30.058Z,6.40
2018-10-12T18:01:58.189Z,5.00
2018-10-12T18:04:26.271Z,6.73
2018-10-12T18:06:54.322Z,9.50
2018-10-12T18:09:22.587Z,5.93
2018-10-12T18:11:50.852Z,4.30
2018-10-12T18:14:19.071Z,5.23
2018-10-12T18:16:47.107Z,4.20
2018-10-12T18:19:15.383Z,8.97
2018-10-12T18:21:43.455Z,7.90
2018-10-12T18:24:11.735Z,6.53
2018-10-12T18:26:39.971Z,7.13
2018-10-12T18:29:08.342Z,5.80
2018-10-12T18:31:36.880Z,8.00
2018-10-12T18:34:04.958Z,6.90
2018-10-12T18:36:33.581Z,6.70
2018-10-12T18:39:01.531Z,8.87
2018-10-12T18:41:29.766Z,4.00
2018-10-12T18:43:58.006Z,5.40
2018-10-12T18:46:26.429Z,9.03
2018-10-12T18:48:54.494Z,8.00
2018-10-12T18:51:22.570Z,8.47
2018-10-12T18:53:50.646Z,6.93
2018-10-12T18:56:18.802Z,6.07
2018-10-12T18:58:47.056Z,6.10
2018-10-12T19:01:15.138Z,10.57
2018-10-12T19:03:43.199Z,8.27
2018-10-12T19:06:11.513Z,5.50
2018-10-12T19:08:39.579Z,9.07
2018-10-12T19:11:07.891Z,6.53
2018-10-12T19:13:36.070Z,6.70
2018-10-12T19:16:04.015Z,5.10
2018-10-12T19:18:32.078Z,7.33
2018-10-12T19:21:00.154Z,6.80
2018-10-12T19:23:28.430Z,6.67
2018-10-12T19:25:56.486Z,9.30
2018-10-12T19:28:24.558Z,11.63
2018-10-12T19:30:52.630Z,6.47
2018-10-12T19:33:20.703Z,7.20
2018-10-12T19:35:48.859Z,6.80
2018-10-12T19:38:16.978Z,8.13
2018-10-12T19:40:45.003Z,7.90
2018-10-12T19:43:13.074Z,5.70
2018-10-12T19:45:41.140Z,7.90
2018-10-12T19:48:09.238Z,8.40
2018-10-12T19:50:37.358Z,7.07
2018-10-12T19:53:05.619Z,7.50
2018-10-12T19:55:33.633Z,10.50
2018-10-12T19:58:01.699Z,5.90
2018-10-12T20:00:29.786Z,6.73
2018-10-12T20:02:57.838Z,7.50
2018-10-12T20:05:25.914Z,6.23
2018-10-12T20:07:53.971Z,8.03
2018-10-12T20:10:22.111Z,8.30
2018-10-12T20:12:50.375Z,9.33
2018-10-12T20:15:18.446Z,15.17
2018-10-12T20:17:46.639Z,9.30
2018-10-12T20:20:14.644Z,12.70
2018-10-12T20:22:42.742Z,7.00
2018-10-12T20:25:10.813Z,8.00
2018-10-12T20:27:38.917Z,8.60
2018-10-12T20:30:07.118Z,11.33
2018-10-12T20:32:35.194Z,6.20
2018-10-12T20:35:03.327Z,13.37
2018-10-12T20:37:31.502Z,7.10
2018-10-12T20:39:59.606Z,8.00
2018-10-12T20:42:27.700Z,9.83
2018-10-12T20:44:55.771Z,9.17
2018-10-12T20:47:23.854Z,7.27
2018-10-12T20:49:52.083Z,9.97
2018-10-12T20:52:20.347Z,9.40
2018-10-12T20:54:48.478Z,7.97
2018-10-12T20:57:16.623Z,10.90
2018-10-12T20:59:44.694Z,6.70
2018-10-12T21:02:12.782Z,6.07
2018-10-12T21:04:41.031Z,12.03
2018-10-12T21:07:09.166Z,10.07
2018-10-12T21:09:37.339Z,9.50
2018-10-12T21:12:05.394Z,9.33
2018-10-12T21:14:33.469Z,8.33
2018-10-12T21:17:01.561Z,12.77
2018-10-12T21:19:29.631Z,7.00
2018-10-12T21:21:57.810Z,9.03
2018-10-12T21:24:25.894Z,7.27
2018-10-12T21:26:53.959Z,9.07
2018-10-12T21:29:22.030Z,13.77
2018-10-12T21:31:50.095Z,6.37
2018-10-12T21:34:18.394Z,9.77
2018-10-12T21:36:46.552Z,10.67
2018-10-12T21:39:14.905Z,7.63
2018-10-12T21:41:42.954Z,7.20
2018-10-12T21:44:11.095Z,10.27
2018-10-12T21:46:39.402Z,9.83
2018-10-12T21:49:07.452Z,7.43
2018-10-12T21:51:35.599Z,6.27
2018-10-12T21:54:03.675Z,7.40
2018-10-12T21:56:31.730Z,6.97
2018-10-12T21:58:59.810Z,7.80
2018-10-12T22:01:27.886Z,7.50
2018-10-12T22:03:55.955Z,7.80
2018-10-12T22:06:24.031Z,7.50
2018-10-12T22:08:53.345Z,6.60
2018-10-12T22:11:21.415Z,8.13
2018-10-12T22:13:49.784Z,7.40
2018-10-12T22:16:17.791Z,7.40
2018-10-12T22:18:45.866Z,7.53
2018-10-12T22:21:13.950Z,5.87
2018-10-12T22:23:42.014Z,7.70
2018-10-12T22:26:10.131Z,5.57
2018-10-12T22:28:38.153Z,5.13
2018-10-12T22:31:06.465Z,7.90
2018-10-12T22:33:34.539Z,5.90
2018-10-12T22:36:02.604Z,6.93
2018-10-12T22:38:30.671Z,7.00
2018-10-12T22:40:58.735Z,5.33
2018-10-12T22:43:26.794Z,5.93
2018-10-12T22:45:54.853Z,6.30
2018-10-12T22:48:23.087Z,4.80
2018-10-12T22:50:51.158Z,8.77
2018-10-12T22:53:19.218Z,7.60
2018-10-12T22:55:47.279Z,5.40
2018-10-12T22:58:15.354Z,8.07
2018-10-12T23:00:43.414Z,7.67
2018-10-12T23:03:11.480Z,5.83
2018-10-12T23:05:39.560Z,8.73
2018-10-12T23:08:07.623Z,7.10
2018-10-12T23:10:35.690Z,5.00
2018-10-12T23:13:03.755Z,6.83
2018-10-12T23:15:31.826Z,7.60
2018-10-12T23:17:59.882Z,7.23
2018-10-12T23:20:27.954Z,8.53
2018-10-12T23:22:56.098Z,5.70
2018-10-12T23:25:24.170Z,6.43
2018-10-12T23:27:52.282Z,12.57
2018-10-12T23:30:20.346Z,6.73
2018-10-12T23:32:48.430Z,8.53
2018-10-12T23:35:16.502Z,5.83
2018-10-12T23:37:44.567Z,6.47
2018-10-12T23:40:12.645Z,7.00
2018-10-12T23:42:40.742Z,6.27
2018-10-12T23:45:08.838Z,6.63
2018-10-12T23:47:36.909Z,5.80
2018-10-12T23:50:05.070Z,7.40
2018-10-12T23:52:33.201Z,6.67
2018-10-12T23:55:01.266Z,8.57
2018-10-12T23:57:29.334Z,7.17
2018-10-12T23:59:57.399Z,8.37
